sensor_id;sensor_type;location;lat;lon;timestamp;pressure;altitude;pressure_sealevel;temperature;humidity
24422;BME280;12600;53.326;-6.298;2023-03-25T00:00:27;98952.00;;;10.24;78.27
24422;BME280;12600;53.326;-6.298;2023-03-25T00:03:18;98952.00;;;10.24;79.05
24422;BME280;12600;53.326;-6.298;2023-03-25T00:06:10;98956.09;;;10.30;78.59
24422;BME280;12600;53.326;-6.298;2023-03-25T00:09:00;98953.47;;;10.21;79.08
24422;BME280;12600;53.326;-6.298;2023-03-25T00:11:50;98962.69;;;10.17;79.51
24422;BME280;12600;53.326;-6.298;2023-03-25T00:14:44;98967.16;;;10.09;80.32
24422;BME280;12600;53.326;-6.298;2023-03-25T00:17:44;98969.19;;;10.24;79.99
24422;BME280;12600;53.326;-6.298;2023-03-25T00:20:35;98986.56;;;10.32;80.52
24422;BME280;12600;53.326;-6.298;2023-03-25T00:23:29;98993.50;;;10.29;81.10
24422;BME280;12600;53.326;-6.298;2023-03-25T00:26:18;98997.13;;;10.33;81.72
24422;BME280;12600;53.326;-6.298;2023-03-25T00:29:08;98996.53;;;10.40;82.14
24422;BME280;12600;53.326;-6.298;2023-03-25T00:31:57;99008.72;;;10.43;82.63
24422;BME280;12600;53.326;-6.298;2023-03-25T00:34:46;99004.81;;;10.44;82.11
24422;BME280;12600;53.326;-6.298;2023-03-25T00:37:37;99010.16;;;10.40;82.69
24422;BME280;12600;53.326;-6.298;2023-03-25T00:40:29;98995.19;;;10.34;82.22
24422;BME280;12600;53.326;-6.298;2023-03-25T00:43:21;99011.75;;;10.41;82.07
24422;BME280;12600;53.326;-6.298;2023-03-25T00:46:11;99017.13;;;10.38;82.23
24422;BME280;12600;53.326;-6.298;2023-03-25T00:49:00;99015.91;;;10.35;81.96
24422;BME280;12600;53.326;-6.298;2023-03-25T00:51:50;99017.53;;;10.24;82.59
24422;BME280;12600;53.326;-6.298;2023-03-25T00:54:42;99019.78;;;10.22;81.88
24422;BME280;12600;53.326;-6.298;2023-03-25T00:57:33;99026.97;;;10.14;82.29
24422;BME280;12600;53.326;-6.298;2023-03-25T01:00:22;99033.66;;;10.17;82.22
24422;BME280;12600;53.326;-6.298;2023-03-25T01:03:12;99040.16;;;10.12;83.23
24422;BME280;12600;53.326;-6.298;2023-03-25T01:06:02;99042.41;;;10.10;83.69
24422;BME280;12600;53.326;-6.298;2023-03-25T01:08:52;99046.63;;;10.20;82.89
24422;BME280;12600;53.326;-6.298;2023-03-25T01:11:44;99047.66;;;10.15;83.08
24422;BME280;12600;53.326;-6.298;2023-03-25T01:14:34;99065.31;;;10.05;83.02
24422;BME280;12600;53.326;-6.298;2023-03-25T01:17:23;99060.63;;;10.06;82.50
24422;BME280;12600;53.326;-6.298;2023-03-25T01:20:12;99051.44;;;10.11;82.27
24422;BME280;12600;53.326;-6.298;2023-03-25T01:23:02;99060.28;;;10.07;81.98
24422;BME280;12600;53.326;-6.298;2023-03-25T01:25:51;99057.25;;;9.97;81.54
24422;BME280;12600;53.326;-6.298;2023-03-25T01:28:44;99009.13;;;9.52;81.11
24422;BME280;12600;53.326;-6.298;2023-03-25T01:31:33;99073.19;;;9.82;81.15
24422;BME280;12600;53.326;-6.298;2023-03-25T01:34:23;99067.16;;;9.89;80.63
24422;BME280;12600;53.326;-6.298;2023-03-25T01:37:13;99062.63;;;9.81;80.49
24422;BME280;12600;53.326;-6.298;2023-03-25T01:40:02;99073.88;;;9.67;81.05
24422;BME280;12600;53.326;-6.298;2023-03-25T01:42:55;99063.41;;;9.57;81.18
24422;BME280;12600;53.326;-6.298;2023-03-25T01:45:46;99083.31;;;9.58;82.12
24422;BME280;12600;53.326;-6.298;2023-03-25T01:48:38;99080.56;;;9.58;82.28
24422;BME280;12600;53.326;-6.298;2023-03-25T01:51:33;99069.88;;;9.52;82.82
24422;BME280;12600;53.326;-6.298;2023-03-25T01:54:24;99071.47;;;9.53;82.58
24422;BME280;12600;53.326;-6.298;2023-03-25T01:57:17;99090.44;;;9.62;83.45
24422;BME280;12600;53.326;-6.298;2023-03-25T02:00:11;99090.09;;;9.51;83.71
24422;BME280;12600;53.326;-6.298;2023-03-25T02:03:02;99103.75;;;9.51;83.92
24422;BME280;12600;53.326;-6.298;2023-03-25T02:05:57;99109.44;;;9.46;84.10
24422;BME280;12600;53.326;-6.298;2023-03-25T02:08:49;99111.13;;;9.51;84.45
24422;BME280;12600;53.326;-6.298;2023-03-25T02:11:40;99101.69;;;9.48;84.59
24422;BME280;12600;53.326;-6.298;2023-03-25T02:14:32;99123.06;;;9.59;84.60
24422;BME280;12600;53.326;-6.298;2023-03-25T02:17:30;99124.53;;;9.56;85.01
24422;BME280;12600;53.326;-6.298;2023-03-25T02:20:49;99131.69;;;9.61;84.70
24422;BME280;12600;53.326;-6.298;2023-03-25T02:24:27;99133.41;;;9.65;84.51
24422;BME280;12600;53.326;-6.298;2023-03-25T02:27:53;99141.16;;;9.63;83.95
24422;BME280;12600;53.326;-6.298;2023-03-25T02:31:32;99146.00;;;9.70;83.70
24422;BME280;12600;53.326;-6.298;2023-03-25T02:34:47;99152.59;;;9.57;84.10
24422;BME280;12600;53.326;-6.298;2023-03-25T02:38:06;99151.13;;;9.59;83.85
24422;BME280;12600;53.326;-6.298;2023-03-25T02:41:07;99156.47;;;9.56;84.01
24422;BME280;12600;53.326;-6.298;2023-03-25T02:44:04;99176.09;;;9.61;83.71
24422;BME280;12600;53.326;-6.298;2023-03-25T02:46:57;99170.91;;;9.56;83.78
24422;BME280;12600;53.326;-6.298;2023-03-25T02:49:53;99188.06;;;9.57;83.46
24422;BME280;12600;53.326;-6.298;2023-03-25T02:52:46;99193.84;;;9.55;83.18
24422;BME280;12600;53.326;-6.298;2023-03-25T02:55:42;99189.16;;;9.43;83.69
24422;BME280;12600;53.326;-6.298;2023-03-25T02:58:35;99213.69;;;9.43;83.73
24422;BME280;12600;53.326;-6.298;2023-03-25T03:01:25;99194.81;;;9.38;83.46
24422;BME280;12600;53.326;-6.298;2023-03-25T03:04:15;99204.25;;;9.41;83.89
24422;BME280;12600;53.326;-6.298;2023-03-25T03:07:04;99220.16;;;9.39;83.79
24422;BME280;12600;53.326;-6.298;2023-03-25T03:10:03;99220.00;;;9.35;84.43
24422;BME280;12600;53.326;-6.298;2023-03-25T03:13:06;99238.41;;;9.38;84.60
24422;BME280;12600;53.326;-6.298;2023-03-25T03:16:06;99234.31;;;9.32;84.46
24422;BME280;12600;53.326;-6.298;2023-03-25T03:19:08;99239.97;;;9.27;84.54
24422;BME280;12600;53.326;-6.298;2023-03-25T03:22:13;99239.50;;;9.25;84.68
24422;BME280;12600;53.326;-6.298;2023-03-25T03:25:19;99260.31;;;9.30;84.86
24422;BME280;12600;53.326;-6.298;2023-03-25T03:28:15;99258.13;;;9.23;85.15
24422;BME280;12600;53.326;-6.298;2023-03-25T03:31:14;99246.97;;;9.16;84.77
24422;BME280;12600;53.326;-6.298;2023-03-25T03:34:30;99264.38;;;9.23;84.97
24422;BME280;12600;53.326;-6.298;2023-03-25T03:37:26;99261.97;;;9.22;84.86
24422;BME280;12600;53.326;-6.298;2023-03-25T03:40:19;99285.38;;;9.23;84.49
24422;BME280;12600;53.326;-6.298;2023-03-25T03:43:16;99286.44;;;9.10;84.87
24422;BME280;12600;53.326;-6.298;2023-03-25T03:46:12;99290.44;;;9.12;85.44
24422;BME280;12600;53.326;-6.298;2023-03-25T03:49:07;99297.94;;;9.15;85.30
24422;BME280;12600;53.326;-6.298;2023-03-25T03:52:01;99315.28;;;9.11;85.49
24422;BME280;12600;53.326;-6.298;2023-03-25T03:54:58;99309.56;;;9.04;85.81
24422;BME280;12600;53.326;-6.298;2023-03-25T03:57:54;99330.03;;;9.10;85.63
24422;BME280;12600;53.326;-6.298;2023-03-25T04:00:51;99326.34;;;9.14;85.64
24422;BME280;12600;53.326;-6.298;2023-03-25T04:03:51;99330.97;;;9.14;85.52
24422;BME280;12600;53.326;-6.298;2023-03-25T04:06:46;99330.97;;;9.14;85.64
24422;BME280;12600;53.326;-6.298;2023-03-25T04:09:44;99339.81;;;9.11;85.39
24422;BME280;12600;53.326;-6.298;2023-03-25T04:12:45;99337.41;;;9.09;85.06
24422;BME280;12600;53.326;-6.298;2023-03-25T04:15:37;99340.59;;;9.11;84.61
24422;BME280;12600;53.326;-6.298;2023-03-25T04:18:27;99351.03;;;9.09;84.56
24422;BME280;12600;53.326;-6.298;2023-03-25T04:21:20;99356.63;;;9.13;84.03
24422;BME280;12600;53.326;-6.298;2023-03-25T04:24:10;99360.00;;;9.10;84.29
24422;BME280;12600;53.326;-6.298;2023-03-25T04:26:59;99363.41;;;9.07;83.63
24422;BME280;12600;53.326;-6.298;2023-03-25T04:29:51;99364.56;;;8.97;84.03
24422;BME280;12600;53.326;-6.298;2023-03-25T04:32:40;99361.31;;;9.04;83.84
24422;BME280;12600;53.326;-6.298;2023-03-25T04:35:31;99352.28;;;8.91;83.87
24422;BME280;12600;53.326;-6.298;2023-03-25T04:38:21;99370.56;;;8.90;84.11
24422;BME280;12600;53.326;-6.298;2023-03-25T04:41:11;99364.94;;;8.87;84.62
24422;BME280;12600;53.326;-6.298;2023-03-25T04:44:02;99396.38;;;8.84;84.60
24422;BME280;12600;53.326;-6.298;2023-03-25T04:46:55;99410.75;;;8.93;83.94
24422;BME280;12600;53.326;-6.298;2023-03-25T04:49:44;99400.78;;;8.97;84.22
24422;BME280;12600;53.326;-6.298;2023-03-25T04:52:36;99415.56;;;8.88;84.52
24422;BME280;12600;53.326;-6.298;2023-03-25T04:55:25;99411.66;;;8.97;84.65
24422;BME280;12600;53.326;-6.298;2023-03-25T04:58:14;99401.31;;;8.91;85.11
24422;BME280;12600;53.326;-6.298;2023-03-25T05:01:04;99423.53;;;9.02;85.50
24422;BME280;12600;53.326;-6.298;2023-03-25T05:03:58;99422.50;;;9.15;85.14
24422;BME280;12600;53.326;-6.298;2023-03-25T05:06:53;99415.63;;;9.09;85.39
24422;BME280;12600;53.326;-6.298;2023-03-25T05:09:45;99423.59;;;9.14;85.51
24422;BME280;12600;53.326;-6.298;2023-03-25T05:12:34;99419.38;;;9.25;85.18
24422;BME280;12600;53.326;-6.298;2023-03-25T05:15:23;99440.53;;;9.28;85.41
24422;BME280;12600;53.326;-6.298;2023-03-25T05:18:15;99431.09;;;9.25;85.85
24422;BME280;12600;53.326;-6.298;2023-03-25T05:21:05;99431.75;;;9.22;85.73
24422;BME280;12600;53.326;-6.298;2023-03-25T05:23:54;99438.78;;;9.23;86.15
24422;BME280;12600;53.326;-6.298;2023-03-25T05:26:46;99439.50;;;9.12;86.71
24422;BME280;12600;53.326;-6.298;2023-03-25T05:29:35;99453.97;;;9.33;86.41
24422;BME280;12600;53.326;-6.298;2023-03-25T05:32:26;99454.59;;;9.30;86.72
24422;BME280;12600;53.326;-6.298;2023-03-25T05:35:20;99456.31;;;9.43;86.25
24422;BME280;12600;53.326;-6.298;2023-03-25T05:38:10;99462.88;;;9.42;86.18
24422;BME280;12600;53.326;-6.298;2023-03-25T05:41:00;99468.72;;;9.32;86.71
24422;BME280;12600;53.326;-6.298;2023-03-25T05:43:51;99481.84;;;9.39;86.69
24422;BME280;12600;53.326;-6.298;2023-03-25T05:46:40;99489.47;;;9.45;86.49
24422;BME280;12600;53.326;-6.298;2023-03-25T05:49:29;99475.91;;;9.37;86.00
24422;BME280;12600;53.326;-6.298;2023-03-25T05:52:19;99494.00;;;9.41;86.30
24422;BME280;12600;53.326;-6.298;2023-03-25T05:55:15;99488.09;;;9.39;86.15
24422;BME280;12600;53.326;-6.298;2023-03-25T05:58:07;99502.97;;;9.42;86.03
24422;BME280;12600;53.326;-6.298;2023-03-25T06:00:58;99495.03;;;9.28;86.45
24422;BME280;12600;53.326;-6.298;2023-03-25T06:03:49;99520.81;;;9.39;86.39
24422;BME280;12600;53.326;-6.298;2023-03-25T06:06:39;99512.34;;;9.32;86.54
24422;BME280;12600;53.326;-6.298;2023-03-25T06:09:28;99525.81;;;9.29;87.29
24422;BME280;12600;53.326;-6.298;2023-03-25T06:12:19;99517.34;;;9.21;87.51
24422;BME280;12600;53.326;-6.298;2023-03-25T06:15:12;99515.88;;;9.33;87.21
24422;BME280;12600;53.326;-6.298;2023-03-25T06:18:03;99534.28;;;9.36;87.51
24422;BME280;12600;53.326;-6.298;2023-03-25T06:20:52;99539.22;;;9.42;87.51
24422;BME280;12600;53.326;-6.298;2023-03-25T06:23:44;99536.94;;;9.44;87.36
24422;BME280;12600;53.326;-6.298;2023-03-25T06:26:35;99539.31;;;9.55;87.16
24422;BME280;12600;53.326;-6.298;2023-03-25T06:29:24;99539.47;;;9.58;87.11
24422;BME280;12600;53.326;-6.298;2023-03-25T06:32:14;99542.31;;;9.62;86.60
24422;BME280;12600;53.326;-6.298;2023-03-25T06:35:06;99539.78;;;9.57;86.95
24422;BME280;12600;53.326;-6.298;2023-03-25T06:37:56;99550.31;;;9.67;86.79
24422;BME280;12600;53.326;-6.298;2023-03-25T06:40:58;99556.22;;;9.69;86.48
24422;BME280;12600;53.326;-6.298;2023-03-25T06:43:48;99575.94;;;9.74;86.82
24422;BME280;12600;53.326;-6.298;2023-03-25T06:47:05;99573.63;;;9.85;86.27
24422;BME280;12600;53.326;-6.298;2023-03-25T06:50:06;99572.97;;;9.88;86.21
24422;BME280;12600;53.326;-6.298;2023-03-25T06:52:56;99593.72;;;9.80;85.79
24422;BME280;12600;53.326;-6.298;2023-03-25T06:55:45;99573.44;;;9.90;85.50
24422;BME280;12600;53.326;-6.298;2023-03-25T06:58:34;99589.22;;;10.05;85.24
24422;BME280;12600;53.326;-6.298;2023-03-25T07:01:24;99608.56;;;10.21;85.14
24422;BME280;12600;53.326;-6.298;2023-03-25T07:04:13;99616.28;;;10.19;85.25
24422;BME280;12600;53.326;-6.298;2023-03-25T07:07:06;99630.19;;;10.26;84.92
24422;BME280;12600;53.326;-6.298;2023-03-25T07:09:56;99636.50;;;10.27;84.86
24422;BME280;12600;53.326;-6.298;2023-03-25T07:12:46;99642.00;;;10.39;84.69
24422;BME280;12600;53.326;-6.298;2023-03-25T07:15:36;99612.66;;;10.36;84.19
24422;BME280;12600;53.326;-6.298;2023-03-25T07:18:26;99646.28;;;10.49;84.10
24422;BME280;12600;53.326;-6.298;2023-03-25T07:21:16;99643.63;;;10.61;84.08
24422;BME280;12600;53.326;-6.298;2023-03-25T07:24:07;99648.94;;;10.57;83.51
24422;BME280;12600;53.326;-6.298;2023-03-25T07:26:56;99638.00;;;10.57;83.07
24422;BME280;12600;53.326;-6.298;2023-03-25T07:29:50;99638.00;;;10.57;82.96
24422;BME280;12600;53.326;-6.298;2023-03-25T07:32:40;99649.72;;;10.79;82.27
24422;BME280;12600;53.326;-6.298;2023-03-25T07:35:31;99641.88;;;11.10;81.00
24422;BME280;12600;53.326;-6.298;2023-03-25T07:38:21;99649.38;;;11.59;80.83
24422;BME280;12600;53.326;-6.298;2023-03-25T07:41:13;99653.56;;;11.89;79.87
24422;BME280;12600;53.326;-6.298;2023-03-25T07:44:19;99658.78;;;12.07;77.86
24422;BME280;12600;53.326;-6.298;2023-03-25T07:47:09;99691.06;;;12.01;77.18
24422;BME280;12600;53.326;-6.298;2023-03-25T07:49:59;99681.66;;;11.77;76.57
24422;BME280;12600;53.326;-6.298;2023-03-25T07:52:48;99679.97;;;11.73;76.76
24422;BME280;12600;53.326;-6.298;2023-03-25T07:55:40;99695.41;;;11.90;76.95
24422;BME280;12600;53.326;-6.298;2023-03-25T07:58:30;99696.78;;;12.08;75.70
24422;BME280;12600;53.326;-6.298;2023-03-25T08:01:19;99700.53;;;12.28;75.32
24422;BME280;12600;53.326;-6.298;2023-03-25T08:04:09;99697.22;;;12.22;73.57
24422;BME280;12600;53.326;-6.298;2023-03-25T08:07:00;99703.59;;;12.39;73.95
24422;BME280;12600;53.326;-6.298;2023-03-25T08:09:50;99698.91;;;12.51;73.07
24422;BME280;12600;53.326;-6.298;2023-03-25T08:12:39;99701.00;;;12.82;73.03
24422;BME280;12600;53.326;-6.298;2023-03-25T08:15:32;99698.72;;;12.84;71.62
24422;BME280;12600;53.326;-6.298;2023-03-25T08:18:21;99710.94;;;12.75;71.04
24422;BME280;12600;53.326;-6.298;2023-03-25T08:21:10;99707.19;;;12.79;70.63
24422;BME280;12600;53.326;-6.298;2023-03-25T08:24:00;99722.41;;;13.05;70.65
24422;BME280;12600;53.326;-6.298;2023-03-25T08:26:56;99727.69;;;12.98;70.01
24422;BME280;12600;53.326;-6.298;2023-03-25T08:30:03;99735.44;;;13.08;69.49
24422;BME280;12600;53.326;-6.298;2023-03-25T08:32:59;99731.34;;;12.89;69.11
24422;BME280;12600;53.326;-6.298;2023-03-25T08:35:49;99751.59;;;12.85;69.12
24422;BME280;12600;53.326;-6.298;2023-03-25T08:38:39;99745.97;;;12.94;69.10
24422;BME280;12600;53.326;-6.298;2023-03-25T08:41:29;99742.59;;;12.84;69.14
24422;BME280;12600;53.326;-6.298;2023-03-25T08:44:18;99760.72;;;12.89;69.10
24422;BME280;12600;53.326;-6.298;2023-03-25T08:47:08;99768.72;;;12.94;68.64
24422;BME280;12600;53.326;-6.298;2023-03-25T08:49:59;99766.84;;;13.10;68.99
24422;BME280;12600;53.326;-6.298;2023-03-25T08:52:48;99779.91;;;13.01;68.08
24422;BME280;12600;53.326;-6.298;2023-03-25T08:55:40;99785.03;;;13.03;68.28
24422;BME280;12600;53.326;-6.298;2023-03-25T08:58:29;99797.25;;;13.05;67.86
24422;BME280;12600;53.326;-6.298;2023-03-25T09:01:19;99781.13;;;13.16;67.74
24422;BME280;12600;53.326;-6.298;2023-03-25T09:04:08;99799.97;;;13.18;67.09
24422;BME280;12600;53.326;-6.298;2023-03-25T09:06:59;99801.66;;;13.34;66.59
24422;BME280;12600;53.326;-6.298;2023-03-25T09:09:59;99809.63;;;13.67;65.61
24422;BME280;12600;53.326;-6.298;2023-03-25T09:12:48;99807.50;;;14.05;64.62
24422;BME280;12600;53.326;-6.298;2023-03-25T09:15:38;99813.63;;;14.30;62.53
24422;BME280;12600;53.326;-6.298;2023-03-25T09:18:28;99833.03;;;14.37;61.98
24422;BME280;12600;53.326;-6.298;2023-03-25T09:21:18;99822.81;;;14.06;62.11
24422;BME280;12600;53.326;-6.298;2023-03-25T09:24:09;99826.16;;;13.83;62.46
24422;BME280;12600;53.326;-6.298;2023-03-25T09:27:00;99820.97;;;13.66;62.97
24422;BME280;12600;53.326;-6.298;2023-03-25T09:29:49;99835.31;;;13.47;63.93
24422;BME280;12600;53.326;-6.298;2023-03-25T09:32:38;99828.97;;;13.31;63.79
24422;BME280;12600;53.326;-6.298;2023-03-25T09:35:28;99834.56;;;13.34;64.01
24422;BME280;12600;53.326;-6.298;2023-03-25T09:38:17;99834.09;;;13.44;63.72
24422;BME280;12600;53.326;-6.298;2023-03-25T09:41:40;99833.63;;;13.42;62.66
24422;BME280;12600;53.326;-6.298;2023-03-25T09:44:42;99833.66;;;13.30;63.30
24422;BME280;12600;53.326;-6.298;2023-03-25T09:47:34;99834.09;;;13.73;62.07
24422;BME280;12600;53.326;-6.298;2023-03-25T09:50:24;99836.78;;;14.60;62.22
24422;BME280;12600;53.326;-6.298;2023-03-25T09:53:24;99850.28;;;15.35;59.51
24422;BME280;12600;53.326;-6.298;2023-03-25T09:56:20;99827.06;;;15.72;56.39
24422;BME280;12600;53.326;-6.298;2023-03-25T09:59:13;99858.50;;;16.32;55.22
24422;BME280;12600;53.326;-6.298;2023-03-25T10:02:17;99846.25;;;15.87;52.68
24422;BME280;12600;53.326;-6.298;2023-03-25T10:05:21;99852.91;;;15.86;53.44
24422;BME280;12600;53.326;-6.298;2023-03-25T10:08:19;99859.66;;;15.70;52.84
24422;BME280;12600;53.326;-6.298;2023-03-25T10:11:23;99859.53;;;15.82;51.90
24422;BME280;12600;53.326;-6.298;2023-03-25T10:14:20;99853.50;;;15.76;50.80
24422;BME280;12600;53.326;-6.298;2023-03-25T10:17:19;99864.34;;;16.08;49.98
24422;BME280;12600;53.326;-6.298;2023-03-25T10:20:18;99873.03;;;16.10;49.35
24422;BME280;12600;53.326;-6.298;2023-03-25T10:23:19;99875.41;;;15.88;50.24
24422;BME280;12600;53.326;-6.298;2023-03-25T10:26:14;99879.78;;;15.54;50.89
24422;BME280;12600;53.326;-6.298;2023-03-25T10:29:13;99874.31;;;15.38;52.07
24422;BME280;12600;53.326;-6.298;2023-03-25T10:32:10;99858.53;;;15.55;51.48
24422;BME280;12600;53.326;-6.298;2023-03-25T10:35:03;99893.25;;;16.37;49.78
24422;BME280;12600;53.326;-6.298;2023-03-25T10:37:59;99893.19;;;16.79;47.13
24422;BME280;12600;53.326;-6.298;2023-03-25T10:41:12;99894.75;;;17.29;45.57
24422;BME280;12600;53.326;-6.298;2023-03-25T10:44:09;99906.38;;;17.16;45.68
24422;BME280;12600;53.326;-6.298;2023-03-25T10:47:03;99917.25;;;17.05;45.65
24422;BME280;12600;53.326;-6.298;2023-03-25T10:49:54;99906.66;;;16.61;46.61
24422;BME280;12600;53.326;-6.298;2023-03-25T10:52:47;99911.84;;;16.20;47.66
24422;BME280;12600;53.326;-6.298;2023-03-25T10:55:38;99899.97;;;15.78;48.53
24422;BME280;12600;53.326;-6.298;2023-03-25T10:58:30;99907.72;;;15.91;49.09
24422;BME280;12600;53.326;-6.298;2023-03-25T11:01:33;99913.88;;;16.23;48.91
24422;BME280;12600;53.326;-6.298;2023-03-25T11:04:31;99917.13;;;16.10;48.35
24422;BME280;12600;53.326;-6.298;2023-03-25T11:07:27;99902.44;;;15.83;48.63
24422;BME280;12600;53.326;-6.298;2023-03-25T11:10:22;99912.72;;;15.86;49.17
24422;BME280;12600;53.326;-6.298;2023-03-25T11:13:12;99902.56;;;15.71;49.71
24422;BME280;12600;53.326;-6.298;2023-03-25T11:16:04;99907.72;;;15.37;50.35
24422;BME280;12600;53.326;-6.298;2023-03-25T11:19:00;99914.03;;;15.37;50.83
24422;BME280;12600;53.326;-6.298;2023-03-25T11:21:54;99914.94;;;15.26;52.91
24422;BME280;12600;53.326;-6.298;2023-03-25T11:24:49;99897.88;;;14.85;57.25
24422;BME280;12600;53.326;-6.298;2023-03-25T11:27:46;99921.47;;;14.54;58.97
24422;BME280;12600;53.326;-6.298;2023-03-25T11:30:36;99928.47;;;14.24;61.37
24422;BME280;12600;53.326;-6.298;2023-03-25T11:33:25;99914.50;;;14.01;62.52
24422;BME280;12600;53.326;-6.298;2023-03-25T11:36:28;99913.25;;;14.42;64.31
24422;BME280;12600;53.326;-6.298;2023-03-25T11:39:26;99914.44;;;15.39;61.58
24422;BME280;12600;53.326;-6.298;2023-03-25T11:42:31;99919.59;;;16.57;58.48
24422;BME280;12600;53.326;-6.298;2023-03-25T11:45:23;99913.84;;;16.89;52.93
24422;BME280;12600;53.326;-6.298;2023-03-25T11:48:17;99924.50;;;16.90;51.29
24422;BME280;12600;53.326;-6.298;2023-03-25T11:51:11;99913.84;;;16.89;50.85
24422;BME280;12600;53.326;-6.298;2023-03-25T11:54:06;99902.97;;;16.99;49.92
24422;BME280;12600;53.326;-6.298;2023-03-25T11:56:56;99922.78;;;17.31;48.85
24422;BME280;12600;53.326;-6.298;2023-03-25T11:59:47;99894.31;;;17.84;47.98
24422;BME280;12600;53.326;-6.298;2023-03-25T12:02:39;99905.22;;;18.40;47.22
24422;BME280;12600;53.326;-6.298;2023-03-25T12:05:29;99912.63;;;18.70;44.73
24422;BME280;12600;53.326;-6.298;2023-03-25T12:08:18;99900.13;;;18.46;44.17
24422;BME280;12600;53.326;-6.298;2023-03-25T12:11:13;99897.22;;;18.32;45.02
24422;BME280;12600;53.326;-6.298;2023-03-25T12:14:22;99900.34;;;18.67;44.13
24422;BME280;12600;53.326;-6.298;2023-03-25T12:17:21;99906.50;;;19.53;43.76
24422;BME280;12600;53.326;-6.298;2023-03-25T12:20:24;99890.13;;;20.14;41.71
24422;BME280;12600;53.326;-6.298;2023-03-25T12:23:25;99899.38;;;20.71;41.10
24422;BME280;12600;53.326;-6.298;2023-03-25T12:26:21;99894.19;;;20.98;39.47
24422;BME280;12600;53.326;-6.298;2023-03-25T12:29:25;99891.03;;;20.46;39.16
24422;BME280;12600;53.326;-6.298;2023-03-25T12:32:30;99900.75;;;19.94;40.63
24422;BME280;12600;53.326;-6.298;2023-03-25T12:35:32;99897.59;;;19.19;40.59
24422;BME280;12600;53.326;-6.298;2023-03-25T12:38:37;99896.91;;;18.40;42.21
24422;BME280;12600;53.326;-6.298;2023-03-25T12:41:38;99912.25;;;17.67;45.41
24422;BME280;12600;53.326;-6.298;2023-03-25T12:44:48;99924.63;;;16.74;51.65
24422;BME280;12600;53.326;-6.298;2023-03-25T12:47:41;99914.97;;;16.00;55.24
24422;BME280;12600;53.326;-6.298;2023-03-25T12:50:42;99906.50;;;15.54;56.74
24422;BME280;12600;53.326;-6.298;2023-03-25T12:53:47;99894.44;;;15.58;60.48
24422;BME280;12600;53.326;-6.298;2023-03-25T12:56:51;99889.53;;;16.06;59.88
24422;BME280;12600;53.326;-6.298;2023-03-25T13:00:07;99886.38;;;16.50;57.25
24422;BME280;12600;53.326;-6.298;2023-03-25T13:03:49;99895.03;;;17.77;57.83
24422;BME280;12600;53.326;-6.298;2023-03-25T13:06:46;99904.34;;;18.33;53.99
24422;BME280;12600;53.326;-6.298;2023-03-25T13:09:52;99900.59;;;18.14;51.46
24422;BME280;12600;53.326;-6.298;2023-03-25T13:12:49;99906.34;;;17.69;51.29
24422;BME280;12600;53.326;-6.298;2023-03-25T13:15:43;99915.03;;;16.88;51.83
24422;BME280;12600;53.326;-6.298;2023-03-25T13:18:39;99904.41;;;16.90;51.79
24422;BME280;12600;53.326;-6.298;2023-03-25T13:21:36;99903.44;;;17.31;51.25
24422;BME280;12600;53.326;-6.298;2023-03-25T13:24:37;99899.59;;;17.96;49.84
24422;BME280;12600;53.326;-6.298;2023-03-25T13:27:30;99895.16;;;18.25;47.77
24422;BME280;12600;53.326;-6.298;2023-03-25T13:30:28;99899.22;;;18.35;47.54
24422;BME280;12600;53.326;-6.298;2023-03-25T13:33:22;99888.19;;;18.38;47.91
24422;BME280;12600;53.326;-6.298;2023-03-25T13:36:18;99900.44;;;18.37;48.08
24422;BME280;12600;53.326;-6.298;2023-03-25T13:39:16;99891.59;;;18.21;48.92
24422;BME280;12600;53.326;-6.298;2023-03-25T13:42:14;99883.41;;;18.35;49.05
24422;BME280;12600;53.326;-6.298;2023-03-25T13:45:08;99879.25;;;19.00;47.51
24422;BME280;12600;53.326;-6.298;2023-03-25T13:48:11;99878.06;;;19.63;44.64
24422;BME280;12600;53.326;-6.298;2023-03-25T13:51:04;99871.91;;;20.16;45.34
24422;BME280;12600;53.326;-6.298;2023-03-25T13:53:58;99875.88;;;20.26;42.74
24422;BME280;12600;53.326;-6.298;2023-03-25T14:00:59;99871.03;;;19.87;40.23
24422;BME280;12600;53.326;-6.298;2023-03-25T14:07:48;99867.22;;;19.33;41.11
24422;BME280;12600;53.326;-6.298;2023-03-25T14:10:50;99860.50;;;19.38;40.12
24422;BME280;12600;53.326;-6.298;2023-03-25T14:13:45;99774.88;;;18.49;41.19
24422;BME280;12600;53.326;-6.298;2023-03-25T14:16:40;99858.38;;;18.62;42.03
24422;BME280;12600;53.326;-6.298;2023-03-25T14:19:35;99853.22;;;18.16;42.56
24422;BME280;12600;53.326;-6.298;2023-03-25T14:22:28;99843.22;;;17.71;43.52
24422;BME280;12600;53.326;-6.298;2023-03-25T14:25:19;99851.75;;;17.28;43.96
24422;BME280;12600;53.326;-6.298;2023-03-25T14:28:15;99880.28;;;17.10;45.25
24422;BME280;12600;53.326;-6.298;2023-03-25T14:31:23;99886.78;;;16.71;48.52
24422;BME280;12600;53.326;-6.298;2023-03-25T14:34:35;99891.28;;;15.76;56.49
24422;BME280;12600;53.326;-6.298;2023-03-25T14:37:31;99883.72;;;15.18;57.81
24422;BME280;12600;53.326;-6.298;2023-03-25T14:40:47;99872.00;;;14.70;61.18
24422;BME280;12600;53.326;-6.298;2023-03-25T14:43:44;99880.94;;;14.51;60.07
24422;BME280;12600;53.326;-6.298;2023-03-25T14:46:35;99884.28;;;14.45;62.02
24422;BME280;12600;53.326;-6.298;2023-03-25T14:49:48;99877.75;;;14.49;63.94
24422;BME280;12600;53.326;-6.298;2023-03-25T14:52:43;99878.78;;;14.45;64.06
24422;BME280;12600;53.326;-6.298;2023-03-25T14:55:40;99864.06;;;14.37;63.07
24422;BME280;12600;53.326;-6.298;2023-03-25T14:58:32;99874.59;;;14.35;63.10
24422;BME280;12600;53.326;-6.298;2023-03-25T15:01:30;99872.47;;;14.28;63.27
24422;BME280;12600;53.326;-6.298;2023-03-25T15:04:29;99864.84;;;14.22;63.94
24422;BME280;12600;53.326;-6.298;2023-03-25T15:07:41;99862.13;;;14.38;65.47
24422;BME280;12600;53.326;-6.298;2023-03-25T15:10:34;99857.69;;;14.80;66.06
24422;BME280;12600;53.326;-6.298;2023-03-25T15:13:28;99851.19;;;15.24;64.67
24422;BME280;12600;53.326;-6.298;2023-03-25T15:16:26;99854.72;;;15.59;62.85
24422;BME280;12600;53.326;-6.298;2023-03-25T15:19:17;99834.69;;;16.01;62.89
24422;BME280;12600;53.326;-6.298;2023-03-25T15:22:20;99837.06;;;16.45;59.31
24422;BME280;12600;53.326;-6.298;2023-03-25T15:25:14;99839.34;;;16.66;60.27